AKU208 VHHH-NZAA
Flight info
| Callsign | AKU208 |
|---|---|
| Flight time | N/A |
| Altitude | 33000 |
| Route | DALOL V642 NOMAN A461 AVMUP W16 MIA B462 TAC R337 ISGOG DCT 08N135E/N0502F350 05N140E 01N145E DCT PIKOK DCT MOE DCT 05S151E 0821S15500E/N0495F370 10S157E 1400S15923E 15S160E DCT BODEG DCT 24S165E DCT OSVAR/N0486F390 DCT 31S170E DCT ELNOS |
| Aircraft | A35K/H-SDE2E3GHIJ3J4J5LM1ORWXY/LB1D1 |
Departure
| Time | 2026-05-03 22:47 |
|---|---|
| Airport | Hong Kong International Airport (VHHH) |
Arrival
| Time | N/A |
|---|---|
| Airport | Auckland International Airport (NZAA) |
| Time | Latitude | Longitude | Altitude | Speed | Heading |
|---|---|---|---|---|---|
| 2026-05-03 22:31 | 22.31251 | 113.92839 | 40 ft | 0 kts | 342° |
| 2026-05-03 22:36 | 22.31235 | 113.92845 | 20 ft | 2 kts | 342° |
| 2026-05-03 22:36 | 22.31219 | 113.92850 | 38 ft | 2 kts | 340° |
| 2026-05-03 22:37 | 22.31204 | 113.92857 | 39 ft | 2 kts | 338° |
| 2026-05-03 22:37 | 22.31189 | 113.92864 | 39 ft | 2 kts | 334° |
| 2026-05-03 22:37 | 22.31174 | 113.92873 | 37 ft | 2 kts | 316° |
| 2026-05-03 22:37 | 22.31163 | 113.92886 | 38 ft | 2 kts | 306° |
| 2026-05-03 22:38 | 22.31165 | 113.92901 | 38 ft | 2 kts | 231° |
| 2026-05-03 22:38 | 22.31175 | 113.92915 | 37 ft | 2 kts | 240° |
| 2026-05-03 22:38 | 22.31184 | 113.92934 | 40 ft | 2 kts | 246° |
| 2026-05-03 22:38 | 22.31190 | 113.92950 | 40 ft | 2 kts | 248° |
| 2026-05-03 22:39 | 22.31194 | 113.92962 | 38 ft | 1 kts | 249° |
| 2026-05-03 22:39 | 22.31195 | 113.92964 | 38 ft | 0 kts | 249° |
| 2026-05-03 22:40 | 22.31189 | 113.92947 | 40 ft | 4 kts | 247° |
| 2026-05-03 22:41 | 22.31132 | 113.92877 | 41 ft | 17 kts | 214° |
| 2026-05-03 22:41 | 22.31024 | 113.92820 | 41 ft | 17 kts | 205° |
| 2026-05-03 22:41 | 22.30915 | 113.92774 | 41 ft | 16 kts | 184° |
| 2026-05-03 22:41 | 22.30846 | 113.92785 | 42 ft | 16 kts | 169° |
| 2026-05-03 22:42 | 22.30755 | 113.92755 | 41 ft | 14 kts | 241° |
| 2026-05-03 22:42 | 22.30714 | 113.92634 | 42 ft | 21 kts | 251° |
| 2026-05-03 22:42 | 22.30661 | 113.92466 | 42 ft | 27 kts | 251° |
| 2026-05-03 22:42 | 22.30599 | 113.92264 | 42 ft | 30 kts | 251° |
| 2026-05-03 22:43 | 22.30527 | 113.92045 | 43 ft | 32 kts | 250° |
| 2026-05-03 22:43 | 22.30457 | 113.91831 | 42 ft | 30 kts | 251° |
| 2026-05-03 22:43 | 22.30391 | 113.91623 | 42 ft | 29 kts | 251° |
| 2026-05-03 22:43 | 22.30325 | 113.91418 | 41 ft | 29 kts | 251° |
| 2026-05-03 22:44 | 22.30260 | 113.91217 | 42 ft | 28 kts | 251° |
| 2026-05-03 22:44 | 22.30198 | 113.91021 | 42 ft | 27 kts | 251° |
| 2026-05-03 22:44 | 22.30136 | 113.90831 | 42 ft | 27 kts | 251° |
| 2026-05-03 22:44 | 22.30075 | 113.90642 | 42 ft | 26 kts | 251° |
| 2026-05-03 22:45 | 22.30016 | 113.90455 | 41 ft | 26 kts | 251° |
| 2026-05-03 22:45 | 22.29954 | 113.90272 | 42 ft | 26 kts | 249° |
| 2026-05-03 22:45 | 22.29895 | 113.90090 | 41 ft | 25 kts | 254° |
| 2026-05-03 22:45 | 22.29838 | 113.89912 | 42 ft | 25 kts | 250° |
| 2026-05-03 22:46 | 22.29788 | 113.89791 | 42 ft | 16 kts | 220° |
| 2026-05-03 22:46 | 22.29684 | 113.89791 | 42 ft | 15 kts | 161° |
| 2026-05-03 22:46 | 22.29632 | 113.89862 | 42 ft | 12 kts | 88° |
| 2026-05-03 22:46 | 22.29671 | 113.89976 | 42 ft | 34 kts | 70° |
| 2026-05-03 22:47 | 22.29830 | 113.90460 | 40 ft | 102 kts | 70° |
| 2026-05-03 22:47 | 22.30133 | 113.91393 | 43 ft | 160 kts | 70° |
| 2026-05-03 22:47 | 22.30534 | 113.92620 | 549 ft | 171 kts | 67° |
| 2026-05-03 22:47 | 22.30930 | 113.93812 | 1368 ft | 171 kts | 65° |
| 2026-05-03 22:48 | 22.31360 | 113.95085 | 1908 ft | 187 kts | 67° |
| 2026-05-03 22:48 | 22.31797 | 113.96467 | 2507 ft | 201 kts | 70° |
| 2026-05-03 22:48 | 22.32208 | 113.97949 | 3139 ft | 211 kts | 70° |
| 2026-05-03 22:48 | 22.32681 | 113.99462 | 3741 ft | 221 kts | 69° |
| 2026-05-03 22:49 | 22.33207 | 114.01081 | 4228 ft | 238 kts | 69° |
| 2026-05-03 22:49 | 22.33796 | 114.02848 | 4579 ft | 262 kts | 75° |
| 2026-05-03 22:49 | 22.33807 | 114.04802 | 5314 ft | 264 kts | 104° |
| 2026-05-03 22:49 | 22.33064 | 114.06615 | 6067 ft | 267 kts | 127° |
| 2026-05-03 22:50 | 22.31721 | 114.07988 | 6731 ft | 268 kts | 152° |
| 2026-05-03 22:50 | 22.29987 | 114.08678 | 7392 ft | 265 kts | 176° |
| 2026-05-03 22:50 | 22.28152 | 114.08782 | 8117 ft | 264 kts | 184° |
| 2026-05-03 22:50 | 22.26310 | 114.08759 | 8814 ft | 266 kts | 185° |
| 2026-05-03 22:51 | 22.24450 | 114.08726 | 9489 ft | 269 kts | 186° |
| 2026-05-03 22:51 | 22.22535 | 114.08688 | 9933 ft | 281 kts | 186° |
| 2026-05-03 22:51 | 22.20538 | 114.08655 | 10313 ft | 294 kts | 185° |
| 2026-05-03 22:51 | 22.18432 | 114.08695 | 10586 ft | 313 kts | 178° |
| 2026-05-03 22:52 | 22.16295 | 114.09459 | 10835 ft | 339 kts | 151° |
| 2026-05-03 22:52 | 22.14542 | 114.11268 | 11088 ft | 363 kts | 126° |
| 2026-05-03 22:52 | 22.13329 | 114.13728 | 11386 ft | 379 kts | 117° |
| 2026-05-03 22:52 | 22.12199 | 114.16359 | 11687 ft | 392 kts | 117° |
| 2026-05-03 22:53 | 22.11417 | 114.18138 | 11864 ft | 398 kts | 117° |
| 2026-05-03 22:53 | 22.09787 | 114.21726 | 12296 ft | 405 kts | 118° |
| 2026-05-03 22:53 | 22.08495 | 114.24437 | 12662 ft | 408 kts | 122° |